MQC9200 EDDK-DTMB
Flight info
| Callsign | MQC9200 |
|---|---|
| Flight time | 2h 15m |
| Altitude | 35000 |
| Route | KUMIK Y854 BOMBI DCT GIGET DCT ABUKA DCT BATUB DCT TIRUL M738 NATAG DCT UNTAD DCT ADOSA DCT TIPNI DCT PININ DCT TUNEX UG737 CBN UG727 DIDON G727 ATLEL |
| Aircraft | B77L/H-SDE1E2E3FGHIJ2J3J4J5M1RWXY/LB1D1 |
Departure
| Time | 2026-04-26 11:24 |
|---|---|
| Airport | Cologne Bonn Airport (EDDK) |
Arrival
| Time | 2026-04-26 13:39 |
|---|---|
| Airport | Monastir Habib Bourguiba International Airport (DTMB) |
| Time | Latitude | Longitude | Altitude | Speed | Heading |
|---|---|---|---|---|---|
| 2026-04-26 11:07 | 50.87539 | 7.12842 | 237 ft | 0 kts | 227° |
| 2026-04-26 11:16 | 50.87554 | 7.12868 | 237 ft | 4 kts | 227° |
| 2026-04-26 11:16 | 50.87570 | 7.12896 | 237 ft | 2 kts | 227° |
| 2026-04-26 11:17 | 50.87584 | 7.12927 | 237 ft | 4 kts | 256° |
| 2026-04-26 11:17 | 50.87583 | 7.12964 | 237 ft | 4 kts | 305° |
| 2026-04-26 11:17 | 50.87566 | 7.12993 | 237 ft | 4 kts | 317° |
| 2026-04-26 11:17 | 50.87556 | 7.13007 | 237 ft | 1 kts | 317° |
| 2026-04-26 11:20 | 50.87557 | 7.13005 | 237 ft | 1 kts | 317° |
| 2026-04-26 11:20 | 50.87600 | 7.12943 | 237 ft | 8 kts | 317° |
| 2026-04-26 11:20 | 50.87642 | 7.12882 | 237 ft | 8 kts | 317° |
| 2026-04-26 11:21 | 50.87684 | 7.12821 | 237 ft | 8 kts | 317° |
| 2026-04-26 11:21 | 50.87736 | 7.12747 | 237 ft | 13 kts | 317° |
| 2026-04-26 11:21 | 50.87815 | 7.12641 | 237 ft | 16 kts | 329° |
| 2026-04-26 11:21 | 50.87923 | 7.12637 | 237 ft | 16 kts | 22° |
| 2026-04-26 11:22 | 50.87997 | 7.12765 | 241 ft | 16 kts | 69° |
| 2026-04-26 11:22 | 50.88008 | 7.12945 | 243 ft | 15 kts | 104° |
| 2026-04-26 11:22 | 50.87990 | 7.12989 | 243 ft | 0 kts | 133° |
| 2026-04-26 11:22 | 50.87986 | 7.12995 | 243 ft | 5 kts | 134° |
| 2026-04-26 11:23 | 50.87873 | 7.13162 | 243 ft | 47 kts | 137° |
| 2026-04-26 11:23 | 50.87458 | 7.13778 | 245 ft | 113 kts | 136° |
| 2026-04-26 11:23 | 50.86730 | 7.14794 | 273 ft | 163 kts | 135° |
| 2026-04-26 11:23 | 50.85829 | 7.16119 | 480 ft | 181 kts | 139° |
| 2026-04-26 11:24 | 50.84867 | 7.17461 | 908 ft | 188 kts | 140° |
| 2026-04-26 11:24 | 50.83875 | 7.18794 | 1458 ft | 186 kts | 140° |
| 2026-04-26 11:24 | 50.82903 | 7.20124 | 2064 ft | 187 kts | 138° |
| 2026-04-26 11:24 | 50.81990 | 7.21732 | 2240 ft | 207 kts | 117° |
| 2026-04-26 11:25 | 50.81440 | 7.23947 | 2431 ft | 229 kts | 104° |
| 2026-04-26 11:25 | 50.81140 | 7.26543 | 2752 ft | 248 kts | 97° |
| 2026-04-26 11:25 | 50.80920 | 7.29287 | 3461 ft | 253 kts | 97° |
| 2026-04-26 11:25 | 50.80704 | 7.32064 | 4202 ft | 259 kts | 96° |
| 2026-04-26 11:26 | 50.80474 | 7.34928 | 4930 ft | 266 kts | 96° |
| 2026-04-26 11:26 | 50.80234 | 7.37849 | 5626 ft | 270 kts | 96° |
| 2026-04-26 11:26 | 50.79904 | 7.40795 | 6257 ft | 276 kts | 109° |
| 2026-04-26 11:26 | 50.78793 | 7.43293 | 6795 ft | 285 kts | 142° |
| 2026-04-26 11:27 | 50.77095 | 7.44927 | 7417 ft | 288 kts | 152° |
| 2026-04-26 11:27 | 50.75905 | 7.45892 | 7884 ft | 291 kts | 153° |
| 2026-04-26 11:27 | 50.73505 | 7.47921 | 8844 ft | 295 kts | 150° |
| 2026-04-26 11:27 | 50.71720 | 7.49552 | 9522 ft | 299 kts | 149° |
| 2026-04-26 11:28 | 50.70537 | 7.50683 | 9995 ft | 301 kts | 148° |
| 2026-04-26 11:28 | 50.68160 | 7.53044 | 10741 ft | 311 kts | 147° |
| 2026-04-26 11:28 | 50.66268 | 7.54960 | 10939 ft | 335 kts | 147° |
| 2026-04-26 11:28 | 50.64239 | 7.57020 | 11125 ft | 359 kts | 147° |
| 2026-04-26 11:29 | 50.62059 | 7.59182 | 11380 ft | 379 kts | 148° |
| 2026-04-26 11:29 | 50.59786 | 7.61380 | 12009 ft | 388 kts | 148° |
| 2026-04-26 11:29 | 50.58214 | 7.62894 | 12519 ft | 393 kts | 149° |
| 2026-04-26 11:29 | 50.55873 | 7.65144 | 13446 ft | 396 kts | 149° |
| 2026-04-26 11:30 | 50.53513 | 7.67409 | 14324 ft | 399 kts | 149° |
| 2026-04-26 11:30 | 50.51133 | 7.69697 | 15098 ft | 403 kts | 149° |
| 2026-04-26 11:30 | 50.48732 | 7.72003 | 15861 ft | 407 kts | 149° |
| 2026-04-26 11:30 | 50.46300 | 7.74336 | 16627 ft | 411 kts | 149° |
| 2026-04-26 11:31 | 50.43848 | 7.76690 | 17391 ft | 415 kts | 149° |
| 2026-04-26 11:31 | 50.41375 | 7.79064 | 18132 ft | 419 kts | 149° |
| 2026-04-26 11:31 | 50.38878 | 7.81456 | 18826 ft | 423 kts | 149° |
| 2026-04-26 11:31 | 50.36355 | 7.83870 | 19463 ft | 427 kts | 149° |
| 2026-04-26 11:32 | 50.33812 | 7.86300 | 20110 ft | 430 kts | 149° |
| 2026-04-26 11:32 | 50.31248 | 7.88746 | 20720 ft | 434 kts | 149° |
| 2026-04-26 11:32 | 50.28656 | 7.91218 | 21306 ft | 438 kts | 150° |
| 2026-04-26 11:32 | 50.26035 | 7.93711 | 21928 ft | 442 kts | 150° |
| 2026-04-26 11:33 | 50.23398 | 7.96220 | 22535 ft | 446 kts | 150° |
| 2026-04-26 11:33 | 50.20738 | 7.98747 | 23133 ft | 450 kts | 150° |
| 2026-04-26 11:33 | 50.18046 | 8.01299 | 23737 ft | 454 kts | 150° |
| 2026-04-26 11:33 | 50.15365 | 8.03836 | 24238 ft | 458 kts | 150° |
| 2026-04-26 11:34 | 50.12634 | 8.06416 | 24796 ft | 459 kts | 150° |
| 2026-04-26 11:34 | 50.09897 | 8.08999 | 25385 ft | 461 kts | 150° |
| 2026-04-26 11:34 | 50.07145 | 8.11592 | 25870 ft | 464 kts | 150° |
| 2026-04-26 11:34 | 50.04333 | 8.14239 | 26328 ft | 468 kts | 150° |
| 2026-04-26 11:35 | 50.01577 | 8.16830 | 26789 ft | 472 kts | 150° |
| 2026-04-26 11:35 | 49.98760 | 8.19475 | 27259 ft | 475 kts | 150° |
| 2026-04-26 11:35 | 49.95923 | 8.22137 | 27741 ft | 477 kts | 150° |
| 2026-04-26 11:35 | 49.93079 | 8.24803 | 28258 ft | 479 kts | 150° |
| 2026-04-26 11:36 | 49.90217 | 8.27480 | 28710 ft | 481 kts | 150° |
| 2026-04-26 11:36 | 49.87343 | 8.30163 | 29115 ft | 485 kts | 151° |
| 2026-04-26 11:36 | 49.84437 | 8.32873 | 29500 ft | 488 kts | 151° |
| 2026-04-26 11:36 | 49.81486 | 8.35619 | 29964 ft | 489 kts | 151° |
| 2026-04-26 11:37 | 49.78617 | 8.38287 | 30596 ft | 485 kts | 151° |
| 2026-04-26 11:37 | 49.75728 | 8.40969 | 31096 ft | 484 kts | 151° |
| 2026-04-26 11:37 | 49.72836 | 8.43649 | 31493 ft | 485 kts | 151° |
| 2026-04-26 11:37 | 49.69941 | 8.46329 | 31862 ft | 486 kts | 151° |
| 2026-04-26 11:38 | 49.67041 | 8.49012 | 32276 ft | 486 kts | 151° |
| 2026-04-26 11:38 | 49.64150 | 8.51684 | 32695 ft | 485 kts | 151° |
| 2026-04-26 11:38 | 49.61251 | 8.54357 | 33089 ft | 485 kts | 151° |
| 2026-04-26 11:38 | 49.58358 | 8.57019 | 33474 ft | 484 kts | 151° |
| 2026-04-26 11:39 | 49.55463 | 8.59679 | 33856 ft | 484 kts | 151° |
| 2026-04-26 11:39 | 49.52571 | 8.62335 | 34238 ft | 484 kts | 152° |
| 2026-04-26 11:39 | 49.49681 | 8.64986 | 34559 ft | 484 kts | 152° |
| 2026-04-26 11:39 | 49.46780 | 8.67579 | 34854 ft | 483 kts | 154° |
| 2026-04-26 11:40 | 49.43754 | 8.69792 | 35157 ft | 481 kts | 160° |
| 2026-04-26 11:40 | 49.40638 | 8.71734 | 35199 ft | 485 kts | 160° |
| 2026-04-26 11:40 | 49.34378 | 8.75577 | 35247 ft | 483 kts | 160° |
| 2026-04-26 11:42 | 49.09768 | 8.90898 | 35235 ft | 476 kts | 160° |
| 2026-04-26 11:43 | 49.03623 | 8.94712 | 35244 ft | 477 kts | 160° |
| 2026-04-26 11:43 | 48.97466 | 8.98522 | 35245 ft | 478 kts | 160° |
| 2026-04-26 11:44 | 48.91338 | 9.02304 | 35240 ft | 478 kts | 160° |
| 2026-04-26 11:44 | 48.85125 | 9.06129 | 35234 ft | 479 kts | 160° |
| 2026-04-26 11:45 | 48.78986 | 9.09898 | 35235 ft | 480 kts | 160° |
| 2026-04-26 11:45 | 48.72794 | 9.13690 | 35244 ft | 480 kts | 160° |
| 2026-04-26 11:46 | 48.66609 | 9.17467 | 35242 ft | 479 kts | 161° |
| 2026-04-26 11:46 | 48.60428 | 9.21232 | 35238 ft | 478 kts | 161° |
| 2026-04-26 11:47 | 48.54262 | 9.24979 | 35233 ft | 477 kts | 161° |
| 2026-04-26 11:47 | 48.48114 | 9.28704 | 35217 ft | 476 kts | 161° |
| 2026-04-26 11:48 | 48.41971 | 9.32416 | 35209 ft | 475 kts | 161° |
| 2026-04-26 11:48 | 48.35834 | 9.36114 | 35214 ft | 475 kts | 161° |
| 2026-04-26 11:49 | 48.29704 | 9.39799 | 35216 ft | 474 kts | 161° |
| 2026-04-26 11:49 | 48.23580 | 9.43472 | 35209 ft | 474 kts | 161° |
| 2026-04-26 11:50 | 48.17445 | 9.47143 | 35212 ft | 474 kts | 161° |
| 2026-04-26 11:50 | 48.11315 | 9.50800 | 35217 ft | 474 kts | 161° |
| 2026-04-26 11:51 | 48.05191 | 9.54445 | 35221 ft | 474 kts | 161° |
| 2026-04-26 11:51 | 47.99289 | 9.58901 | 35213 ft | 479 kts | 149° |
| 2026-04-26 11:52 | 47.94725 | 9.63617 | 35220 ft | 480 kts | 148° |
| 2026-04-26 11:52 | 47.88306 | 9.70270 | 35214 ft | 481 kts | 148° |
| 2026-04-26 11:53 | 47.82827 | 9.75875 | 35210 ft | 481 kts | 148° |
| 2026-04-26 11:54 | 47.74531 | 9.84291 | 35212 ft | 482 kts | 149° |
| 2026-04-26 11:54 | 47.68984 | 9.89899 | 35214 ft | 483 kts | 149° |
| 2026-04-26 11:55 | 47.63426 | 9.95504 | 35215 ft | 484 kts | 149° |
| 2026-04-26 11:55 | 47.57853 | 10.01114 | 35214 ft | 485 kts | 149° |
| 2026-04-26 11:56 | 47.52266 | 10.06721 | 35200 ft | 485 kts | 148° |
| 2026-04-26 11:56 | 47.46672 | 10.12320 | 35211 ft | 486 kts | 148° |
| 2026-04-26 11:57 | 47.41067 | 10.17916 | 35207 ft | 487 kts | 149° |
| 2026-04-26 11:57 | 47.35458 | 10.23503 | 35208 ft | 487 kts | 149° |
| 2026-04-26 11:58 | 47.29839 | 10.29083 | 35214 ft | 487 kts | 149° |
| 2026-04-26 11:58 | 47.24221 | 10.34649 | 35208 ft | 487 kts | 149° |
| 2026-04-26 11:59 | 47.18605 | 10.40200 | 35212 ft | 486 kts | 148° |
| 2026-04-26 11:59 | 47.12981 | 10.45744 | 35204 ft | 487 kts | 148° |
| 2026-04-26 12:00 | 47.07314 | 10.51134 | 35201 ft | 484 kts | 154° |
| 2026-04-26 12:00 | 47.01233 | 10.55063 | 35194 ft | 478 kts | 165° |
| 2026-04-26 12:01 | 46.94865 | 10.57835 | 35223 ft | 477 kts | 166° |
| 2026-04-26 12:01 | 46.88509 | 10.60667 | 35216 ft | 478 kts | 165° |
| 2026-04-26 12:02 | 46.82112 | 10.63288 | 35219 ft | 477 kts | 169° |
| 2026-04-26 12:02 | 46.75648 | 10.65546 | 35220 ft | 478 kts | 169° |
| 2026-04-26 12:03 | 46.69182 | 10.67789 | 35229 ft | 478 kts | 169° |
| 2026-04-26 12:03 | 46.62707 | 10.70064 | 35212 ft | 479 kts | 169° |
| 2026-04-26 12:04 | 46.56228 | 10.72343 | 35227 ft | 479 kts | 168° |
| 2026-04-26 12:04 | 46.49744 | 10.74620 | 35229 ft | 480 kts | 169° |
| 2026-04-26 12:05 | 46.43254 | 10.76894 | 35228 ft | 479 kts | 168° |
| 2026-04-26 12:05 | 46.36778 | 10.79157 | 35254 ft | 479 kts | 168° |
| 2026-04-26 12:06 | 46.30300 | 10.81414 | 35242 ft | 479 kts | 168° |
| 2026-04-26 12:06 | 46.23830 | 10.83664 | 35249 ft | 478 kts | 168° |
| 2026-04-26 12:07 | 46.17348 | 10.85843 | 35241 ft | 478 kts | 169° |
| 2026-04-26 12:07 | 46.10890 | 10.87884 | 35228 ft | 478 kts | 170° |
| 2026-04-26 12:08 | 46.04402 | 10.89933 | 35206 ft | 477 kts | 169° |
| 2026-04-26 12:08 | 45.97912 | 10.91995 | 35190 ft | 476 kts | 169° |
| 2026-04-26 12:09 | 45.91439 | 10.94053 | 35192 ft | 477 kts | 169° |
| 2026-04-26 12:09 | 45.84949 | 10.96113 | 35162 ft | 478 kts | 169° |
| 2026-04-26 12:10 | 45.78449 | 10.98171 | 35146 ft | 478 kts | 169° |
| 2026-04-26 12:10 | 45.71953 | 11.00221 | 35150 ft | 478 kts | 169° |
| 2026-04-26 12:11 | 45.65448 | 11.02265 | 35124 ft | 478 kts | 170° |
| 2026-04-26 12:11 | 45.58869 | 11.03520 | 35111 ft | 476 kts | 176° |
| 2026-04-26 12:12 | 45.52263 | 11.04419 | 35110 ft | 477 kts | 176° |
| 2026-04-26 12:12 | 45.45660 | 11.05344 | 35099 ft | 477 kts | 176° |
| 2026-04-26 12:13 | 45.39059 | 11.06296 | 35100 ft | 477 kts | 176° |
| 2026-04-26 12:13 | 45.32507 | 11.07250 | 35107 ft | 476 kts | 176° |
| 2026-04-26 12:14 | 45.25877 | 11.08213 | 35102 ft | 476 kts | 176° |
| 2026-04-26 12:14 | 45.19325 | 11.09162 | 35099 ft | 476 kts | 176° |
| 2026-04-26 12:15 | 45.12732 | 11.10114 | 35104 ft | 476 kts | 176° |
| 2026-04-26 12:15 | 45.06140 | 11.11062 | 35103 ft | 476 kts | 176° |
| 2026-04-26 12:16 | 44.99547 | 11.12009 | 35151 ft | 476 kts | 176° |
| 2026-04-26 12:16 | 44.92954 | 11.12954 | 35145 ft | 477 kts | 176° |
| 2026-04-26 12:17 | 44.87426 | 11.13745 | 35157 ft | 477 kts | 176° |
| 2026-04-26 12:17 | 44.80815 | 11.14688 | 35151 ft | 477 kts | 176° |
| 2026-04-26 12:18 | 44.74252 | 11.15623 | 35158 ft | 477 kts | 176° |
| 2026-04-26 12:18 | 44.67649 | 11.16561 | 35166 ft | 477 kts | 176° |
| 2026-04-26 12:19 | 44.61036 | 11.17498 | 35159 ft | 478 kts | 176° |
| 2026-04-26 12:19 | 44.54416 | 11.18435 | 35168 ft | 478 kts | 176° |
| 2026-04-26 12:20 | 44.47797 | 11.19368 | 35174 ft | 478 kts | 176° |
| 2026-04-26 12:20 | 44.41173 | 11.20301 | 35172 ft | 478 kts | 176° |
| 2026-04-26 12:21 | 44.34548 | 11.21232 | 35166 ft | 478 kts | 176° |
| 2026-04-26 12:21 | 44.27917 | 11.21957 | 35179 ft | 477 kts | 180° |
| 2026-04-26 12:22 | 44.21286 | 11.22137 | 35177 ft | 477 kts | 181° |
| 2026-04-26 12:22 | 44.14657 | 11.22298 | 35180 ft | 477 kts | 181° |
| 2026-04-26 12:23 | 44.08067 | 11.22479 | 35164 ft | 476 kts | 181° |
| 2026-04-26 12:23 | 44.01440 | 11.22679 | 35156 ft | 476 kts | 181° |
| 2026-04-26 12:24 | 43.94822 | 11.22880 | 35156 ft | 476 kts | 181° |
| 2026-04-26 12:24 | 43.88206 | 11.23079 | 35161 ft | 475 kts | 181° |
| 2026-04-26 12:25 | 43.78285 | 11.23377 | 35155 ft | 476 kts | 181° |
| 2026-04-26 12:25 | 43.71669 | 11.23575 | 35160 ft | 475 kts | 181° |
| 2026-04-26 12:26 | 43.65064 | 11.23773 | 35143 ft | 475 kts | 181° |
| 2026-04-26 12:26 | 43.58457 | 11.23969 | 35139 ft | 475 kts | 181° |
| 2026-04-26 12:27 | 43.51851 | 11.24165 | 35137 ft | 475 kts | 181° |
| 2026-04-26 12:27 | 43.45231 | 11.24361 | 35135 ft | 475 kts | 181° |
| 2026-04-26 12:28 | 43.38623 | 11.24557 | 35134 ft | 475 kts | 181° |
| 2026-04-26 12:28 | 43.32016 | 11.24752 | 35137 ft | 475 kts | 181° |
| 2026-04-26 12:29 | 43.25412 | 11.24948 | 35123 ft | 474 kts | 181° |
| 2026-04-26 12:30 | 43.15564 | 11.25237 | 35135 ft | 474 kts | 181° |
| 2026-04-26 12:30 | 43.08974 | 11.25430 | 35139 ft | 473 kts | 181° |
| 2026-04-26 12:31 | 42.99097 | 11.25719 | 35145 ft | 474 kts | 181° |
| 2026-04-26 12:31 | 42.94686 | 11.25848 | 35141 ft | 474 kts | 181° |
| 2026-04-26 12:33 | 42.75397 | 11.26409 | 35146 ft | 474 kts | 181° |
| 2026-04-26 12:33 | 42.68799 | 11.26599 | 35153 ft | 474 kts | 181° |
| 2026-04-26 12:34 | 42.62202 | 11.26789 | 35150 ft | 475 kts | 181° |
| 2026-04-26 12:34 | 42.55602 | 11.26979 | 35152 ft | 475 kts | 181° |
| 2026-04-26 12:35 | 42.49040 | 11.27168 | 35160 ft | 475 kts | 181° |
| 2026-04-26 12:35 | 42.42434 | 11.27356 | 35158 ft | 475 kts | 181° |
| 2026-04-26 12:36 | 42.35820 | 11.27547 | 35157 ft | 475 kts | 181° |
| 2026-04-26 12:36 | 42.29213 | 11.27736 | 35157 ft | 475 kts | 181° |
| 2026-04-26 12:37 | 42.22608 | 11.27924 | 35157 ft | 475 kts | 181° |
| 2026-04-26 12:37 | 42.16001 | 11.28112 | 35160 ft | 475 kts | 181° |
| 2026-04-26 12:38 | 42.09392 | 11.28300 | 35158 ft | 475 kts | 181° |
| 2026-04-26 12:38 | 42.02783 | 11.28487 | 35154 ft | 475 kts | 180° |
| 2026-04-26 12:39 | 41.97292 | 11.28642 | 35164 ft | 475 kts | 180° |
| 2026-04-26 12:39 | 41.90683 | 11.28829 | 35162 ft | 475 kts | 180° |
| 2026-04-26 12:40 | 41.84064 | 11.29015 | 35159 ft | 476 kts | 180° |
| 2026-04-26 12:40 | 41.77444 | 11.29201 | 35164 ft | 476 kts | 180° |
| 2026-04-26 12:41 | 41.70822 | 11.29387 | 35166 ft | 476 kts | 180° |
| 2026-04-26 12:41 | 41.63393 | 11.29595 | 35160 ft | 476 kts | 180° |
| 2026-04-26 12:42 | 41.56767 | 11.29780 | 35168 ft | 476 kts | 180° |
| 2026-04-26 12:42 | 41.50140 | 11.29964 | 35166 ft | 476 kts | 180° |
| 2026-04-26 12:43 | 41.43507 | 11.30149 | 35165 ft | 476 kts | 180° |
| 2026-04-26 12:43 | 41.36919 | 11.30332 | 35166 ft | 476 kts | 180° |
| 2026-04-26 12:44 | 41.30288 | 11.30515 | 35169 ft | 477 kts | 180° |
| 2026-04-26 12:44 | 41.23657 | 11.30699 | 35168 ft | 477 kts | 180° |
| 2026-04-26 12:45 | 41.17022 | 11.30881 | 35168 ft | 477 kts | 180° |
| 2026-04-26 12:45 | 41.10382 | 11.31064 | 35169 ft | 477 kts | 180° |
| 2026-04-26 12:46 | 41.03737 | 11.31247 | 35167 ft | 478 kts | 180° |
| 2026-04-26 12:46 | 40.97090 | 11.31429 | 35168 ft | 478 kts | 180° |
| 2026-04-26 12:47 | 40.90433 | 11.31611 | 35180 ft | 478 kts | 180° |
| 2026-04-26 12:47 | 40.83775 | 11.31793 | 35175 ft | 479 kts | 180° |
| 2026-04-26 12:48 | 40.77117 | 11.31975 | 35164 ft | 479 kts | 180° |
| 2026-04-26 12:48 | 40.70454 | 11.32156 | 35178 ft | 479 kts | 180° |
| 2026-04-26 12:49 | 40.63789 | 11.32337 | 35177 ft | 479 kts | 180° |
| 2026-04-26 12:49 | 40.57128 | 11.32517 | 35174 ft | 479 kts | 179° |
| 2026-04-26 12:50 | 40.50466 | 11.32697 | 35171 ft | 479 kts | 179° |
| 2026-04-26 12:50 | 40.43841 | 11.32876 | 35172 ft | 479 kts | 179° |
| 2026-04-26 12:51 | 40.37179 | 11.33056 | 35176 ft | 479 kts | 179° |
| 2026-04-26 12:51 | 40.30518 | 11.33235 | 35176 ft | 479 kts | 179° |
| 2026-04-26 12:52 | 40.23851 | 11.33413 | 35173 ft | 479 kts | 179° |
| 2026-04-26 12:52 | 40.18313 | 11.33562 | 35175 ft | 479 kts | 179° |
| 2026-04-26 12:53 | 40.11645 | 11.33740 | 35172 ft | 479 kts | 180° |
| 2026-04-26 12:53 | 40.04975 | 11.33918 | 35177 ft | 479 kts | 180° |
| 2026-04-26 12:54 | 39.98309 | 11.34095 | 35172 ft | 479 kts | 179° |
| 2026-04-26 12:54 | 39.91635 | 11.34273 | 35176 ft | 479 kts | 180° |
| 2026-04-26 12:55 | 39.84967 | 11.34450 | 35169 ft | 479 kts | 180° |
| 2026-04-26 12:55 | 39.78295 | 11.34626 | 35173 ft | 479 kts | 180° |
| 2026-04-26 12:56 | 39.71625 | 11.34802 | 35167 ft | 479 kts | 180° |
| 2026-04-26 12:56 | 39.64956 | 11.34979 | 35177 ft | 479 kts | 180° |
| 2026-04-26 12:57 | 39.58291 | 11.35154 | 35177 ft | 479 kts | 180° |
| 2026-04-26 12:57 | 39.51630 | 11.35329 | 35166 ft | 479 kts | 180° |
| 2026-04-26 12:58 | 39.41648 | 11.35591 | 35170 ft | 478 kts | 180° |
| 2026-04-26 12:58 | 39.34997 | 11.35764 | 35178 ft | 478 kts | 180° |
| 2026-04-26 12:59 | 39.28385 | 11.35937 | 35177 ft | 478 kts | 180° |
| 2026-04-26 12:59 | 39.21696 | 11.36112 | 35162 ft | 478 kts | 181° |
| 2026-04-26 13:00 | 39.15087 | 11.36283 | 35170 ft | 478 kts | 181° |
| 2026-04-26 13:00 | 39.08443 | 11.36456 | 35173 ft | 478 kts | 181° |
| 2026-04-26 13:01 | 39.01795 | 11.36627 | 35164 ft | 478 kts | 181° |
| 2026-04-26 13:01 | 38.95143 | 11.36800 | 35173 ft | 478 kts | 181° |
| 2026-04-26 13:02 | 38.88491 | 11.36971 | 35170 ft | 478 kts | 181° |
| 2026-04-26 13:02 | 38.81840 | 11.37142 | 35166 ft | 478 kts | 181° |
| 2026-04-26 13:03 | 38.75189 | 11.37314 | 35161 ft | 478 kts | 181° |
| 2026-04-26 13:03 | 38.68539 | 11.37484 | 35170 ft | 478 kts | 181° |
| 2026-04-26 13:04 | 38.61894 | 11.37654 | 35170 ft | 478 kts | 181° |
| 2026-04-26 13:04 | 38.55244 | 11.37824 | 35161 ft | 478 kts | 182° |
| 2026-04-26 13:05 | 38.48602 | 11.37994 | 35167 ft | 478 kts | 181° |
| 2026-04-26 13:05 | 38.41953 | 11.38163 | 35170 ft | 478 kts | 182° |
| 2026-04-26 13:06 | 38.35304 | 11.38332 | 35169 ft | 478 kts | 182° |
| 2026-04-26 13:06 | 38.28710 | 11.38499 | 35166 ft | 477 kts | 182° |
| 2026-04-26 13:07 | 38.22027 | 11.38669 | 35170 ft | 477 kts | 182° |
| 2026-04-26 13:07 | 38.15392 | 11.38836 | 35169 ft | 477 kts | 182° |
| 2026-04-26 13:08 | 38.08803 | 11.39003 | 35164 ft | 477 kts | 182° |
| 2026-04-26 13:08 | 38.02172 | 11.39170 | 35168 ft | 476 kts | 182° |
| 2026-04-26 13:09 | 37.95553 | 11.39305 | 35163 ft | 475 kts | 185° |
| 2026-04-26 13:09 | 37.89049 | 11.38345 | 35162 ft | 469 kts | 196° |
| 2026-04-26 13:10 | 37.82715 | 11.36389 | 35167 ft | 468 kts | 197° |
| 2026-04-26 13:10 | 37.76375 | 11.34458 | 35167 ft | 469 kts | 196° |
| 2026-04-26 13:11 | 37.70023 | 11.32570 | 35165 ft | 469 kts | 196° |
| 2026-04-26 13:11 | 37.63669 | 11.30692 | 35155 ft | 469 kts | 197° |
| 2026-04-26 13:12 | 37.57317 | 11.28815 | 35156 ft | 469 kts | 197° |
| 2026-04-26 13:12 | 37.50997 | 11.26947 | 34650 ft | 465 kts | 197° |
| 2026-04-26 13:13 | 37.47861 | 11.26020 | 34191 ft | 461 kts | 197° |
| 2026-04-26 13:13 | 37.44756 | 11.25104 | 33663 ft | 456 kts | 197° |
| 2026-04-26 13:13 | 37.41679 | 11.24196 | 33143 ft | 451 kts | 197° |
| 2026-04-26 13:13 | 37.38634 | 11.23299 | 32683 ft | 446 kts | 197° |
| 2026-04-26 13:14 | 37.35627 | 11.22413 | 32215 ft | 442 kts | 197° |
| 2026-04-26 13:14 | 37.32649 | 11.21536 | 31750 ft | 438 kts | 197° |
| 2026-04-26 13:14 | 37.29697 | 11.20667 | 31294 ft | 434 kts | 197° |
| 2026-04-26 13:14 | 37.26772 | 11.19806 | 30844 ft | 430 kts | 197° |
| 2026-04-26 13:15 | 37.23869 | 11.18953 | 30399 ft | 427 kts | 197° |
| 2026-04-26 13:15 | 37.20992 | 11.18108 | 29895 ft | 423 kts | 197° |
| 2026-04-26 13:15 | 37.18132 | 11.17269 | 29371 ft | 420 kts | 198° |
| 2026-04-26 13:15 | 37.15343 | 11.16452 | 28944 ft | 415 kts | 198° |
| 2026-04-26 13:16 | 37.12540 | 11.15631 | 28495 ft | 412 kts | 198° |
| 2026-04-26 13:16 | 37.09762 | 11.14817 | 28043 ft | 408 kts | 198° |
| 2026-04-26 13:16 | 37.07010 | 11.14012 | 27601 ft | 405 kts | 198° |
| 2026-04-26 13:16 | 37.04278 | 11.13213 | 27175 ft | 402 kts | 198° |
| 2026-04-26 13:17 | 36.98910 | 11.11646 | 26487 ft | 391 kts | 198° |
| 2026-04-26 13:17 | 36.96265 | 11.10874 | 26079 ft | 389 kts | 198° |
| 2026-04-26 13:18 | 36.91034 | 11.09348 | 25258 ft | 384 kts | 197° |
| 2026-04-26 13:18 | 36.88438 | 11.08588 | 24859 ft | 382 kts | 198° |
| 2026-04-26 13:18 | 36.83488 | 11.06552 | 23460 ft | 368 kts | 206° |
| 2026-04-26 13:19 | 36.81109 | 11.05352 | 22433 ft | 374 kts | 202° |
| 2026-04-26 13:19 | 36.78564 | 11.04548 | 21895 ft | 379 kts | 195° |
| 2026-04-26 13:19 | 36.75989 | 11.03862 | 21471 ft | 378 kts | 197° |
| 2026-04-26 13:19 | 36.73425 | 11.03136 | 21129 ft | 377 kts | 197° |
| 2026-04-26 13:20 | 36.70872 | 11.02406 | 20818 ft | 375 kts | 197° |
| 2026-04-26 13:20 | 36.68329 | 11.01682 | 20487 ft | 374 kts | 197° |
| 2026-04-26 13:20 | 36.65828 | 11.00853 | 20148 ft | 369 kts | 204° |
| 2026-04-26 13:20 | 36.63530 | 10.99486 | 19813 ft | 364 kts | 215° |
| 2026-04-26 13:21 | 36.61485 | 10.97681 | 19513 ft | 358 kts | 223° |
| 2026-04-26 13:21 | 36.60218 | 10.96376 | 19311 ft | 357 kts | 223° |
| 2026-04-26 13:21 | 36.57652 | 10.93761 | 18907 ft | 356 kts | 223° |
| 2026-04-26 13:21 | 36.55760 | 10.91847 | 18639 ft | 355 kts | 223° |
| 2026-04-26 13:22 | 36.53824 | 10.89892 | 18357 ft | 353 kts | 222° |
| 2026-04-26 13:22 | 36.51943 | 10.87997 | 18057 ft | 351 kts | 222° |
| 2026-04-26 13:22 | 36.50051 | 10.86093 | 17761 ft | 349 kts | 223° |
| 2026-04-26 13:22 | 36.48143 | 10.84176 | 17432 ft | 346 kts | 223° |
| 2026-04-26 13:23 | 36.46303 | 10.82329 | 17050 ft | 343 kts | 223° |
| 2026-04-26 13:23 | 36.44458 | 10.80478 | 16669 ft | 339 kts | 223° |
| 2026-04-26 13:23 | 36.42629 | 10.78645 | 16281 ft | 336 kts | 223° |
| 2026-04-26 13:23 | 36.40821 | 10.76833 | 15908 ft | 333 kts | 223° |
| 2026-04-26 13:24 | 36.39027 | 10.75037 | 15549 ft | 330 kts | 223° |
| 2026-04-26 13:24 | 36.37251 | 10.73259 | 15183 ft | 327 kts | 224° |
| 2026-04-26 13:24 | 36.35487 | 10.71494 | 14804 ft | 324 kts | 224° |
| 2026-04-26 13:24 | 36.33741 | 10.69748 | 14440 ft | 321 kts | 224° |
| 2026-04-26 13:25 | 36.32007 | 10.68016 | 14083 ft | 319 kts | 224° |
| 2026-04-26 13:25 | 36.30288 | 10.66299 | 13691 ft | 316 kts | 224° |
| 2026-04-26 13:25 | 36.28583 | 10.64597 | 13313 ft | 313 kts | 224° |
| 2026-04-26 13:25 | 36.26892 | 10.62911 | 12936 ft | 310 kts | 224° |
| 2026-04-26 13:26 | 36.25221 | 10.61245 | 12584 ft | 307 kts | 224° |
| 2026-04-26 13:26 | 36.23567 | 10.59597 | 12244 ft | 303 kts | 224° |
| 2026-04-26 13:26 | 36.21925 | 10.57962 | 11904 ft | 303 kts | 224° |
| 2026-04-26 13:26 | 36.20276 | 10.56318 | 11565 ft | 307 kts | 224° |
| 2026-04-26 13:27 | 36.18594 | 10.54641 | 11227 ft | 314 kts | 223° |
| 2026-04-26 13:27 | 36.16878 | 10.52933 | 10872 ft | 317 kts | 223° |
| 2026-04-26 13:27 | 36.15170 | 10.51239 | 10663 ft | 310 kts | 223° |
| 2026-04-26 13:27 | 36.13516 | 10.49601 | 10512 ft | 299 kts | 223° |
| 2026-04-26 13:28 | 36.11921 | 10.48021 | 10380 ft | 288 kts | 223° |
| 2026-04-26 13:28 | 36.10385 | 10.46500 | 10235 ft | 277 kts | 223° |
| 2026-04-26 13:28 | 36.08910 | 10.45041 | 10086 ft | 267 kts | 223° |
| 2026-04-26 13:28 | 36.07325 | 10.43916 | 9754 ft | 266 kts | 199° |
| 2026-04-26 13:29 | 36.05459 | 10.43753 | 9512 ft | 277 kts | 179° |
| 2026-04-26 13:29 | 36.04172 | 10.43934 | 9329 ft | 285 kts | 178° |
| 2026-04-26 13:29 | 36.01510 | 10.44343 | 8894 ft | 294 kts | 177° |
| 2026-04-26 13:29 | 35.99482 | 10.44662 | 8553 ft | 293 kts | 176° |
| 2026-04-26 13:30 | 35.97460 | 10.44979 | 8117 ft | 293 kts | 176° |
| 2026-04-26 13:30 | 35.95453 | 10.45192 | 7765 ft | 285 kts | 185° |
| 2026-04-26 13:30 | 35.93507 | 10.44958 | 7458 ft | 278 kts | 192° |
| 2026-04-26 13:30 | 35.91607 | 10.44587 | 7153 ft | 274 kts | 193° |
| 2026-04-26 13:31 | 35.89748 | 10.44193 | 6862 ft | 269 kts | 193° |
| 2026-04-26 13:31 | 35.87920 | 10.43785 | 6577 ft | 265 kts | 193° |
| 2026-04-26 13:31 | 35.86101 | 10.43370 | 6298 ft | 267 kts | 193° |
| 2026-04-26 13:31 | 35.84261 | 10.42938 | 6012 ft | 271 kts | 193° |
| 2026-04-26 13:32 | 35.82401 | 10.42498 | 5727 ft | 273 kts | 193° |
| 2026-04-26 13:32 | 35.80544 | 10.42055 | 5448 ft | 268 kts | 193° |
| 2026-04-26 13:32 | 35.78736 | 10.41618 | 5215 ft | 262 kts | 193° |
| 2026-04-26 13:32 | 35.76960 | 10.41191 | 5102 ft | 256 kts | 193° |
| 2026-04-26 13:33 | 35.75188 | 10.41070 | 4857 ft | 263 kts | 167° |
| 2026-04-26 13:33 | 35.73599 | 10.42187 | 4591 ft | 270 kts | 131° |
| 2026-04-26 13:33 | 35.72583 | 10.44112 | 4319 ft | 267 kts | 122° |
| 2026-04-26 13:33 | 35.71570 | 10.46021 | 4048 ft | 265 kts | 124° |
| 2026-04-26 13:34 | 35.70555 | 10.47881 | 3765 ft | 253 kts | 122° |
| 2026-04-26 13:34 | 35.70026 | 10.49799 | 3598 ft | 228 kts | 90° |
| 2026-04-26 13:34 | 35.70229 | 10.51653 | 3522 ft | 215 kts | 81° |
| 2026-04-26 13:34 | 35.70428 | 10.52837 | 3333 ft | 211 kts | 78° |
| 2026-04-26 13:35 | 35.70924 | 10.55112 | 3071 ft | 198 kts | 76° |
| 2026-04-26 13:35 | 35.71314 | 10.56746 | 2802 ft | 200 kts | 76° |
| 2026-04-26 13:35 | 35.71707 | 10.58379 | 2520 ft | 198 kts | 74° |
| 2026-04-26 13:35 | 35.72090 | 10.59974 | 2288 ft | 188 kts | 75° |
| 2026-04-26 13:36 | 35.72442 | 10.61447 | 2041 ft | 173 kts | 76° |
| 2026-04-26 13:36 | 35.72765 | 10.62792 | 1855 ft | 156 kts | 77° |
| 2026-04-26 13:36 | 35.73068 | 10.64061 | 1658 ft | 155 kts | 77° |
| 2026-04-26 13:36 | 35.73380 | 10.65367 | 1430 ft | 160 kts | 77° |
| 2026-04-26 13:37 | 35.73687 | 10.66649 | 1203 ft | 159 kts | 77° |
| 2026-04-26 13:37 | 35.74001 | 10.67963 | 1016 ft | 163 kts | 77° |
| 2026-04-26 13:37 | 35.74320 | 10.69293 | 777 ft | 162 kts | 75° |
| 2026-04-26 13:37 | 35.74628 | 10.70582 | 569 ft | 156 kts | 75° |
| 2026-04-26 13:38 | 35.74945 | 10.71850 | 415 ft | 156 kts | 73° |
| 2026-04-26 13:38 | 35.75247 | 10.73129 | 174 ft | 151 kts | 76° |
| 2026-04-26 13:38 | 35.75534 | 10.74350 | 17 ft | 144 kts | 75° |
| 2026-04-26 13:38 | 35.75772 | 10.75370 | 17 ft | 99 kts | 74° |
| 2026-04-26 13:39 | 35.75915 | 10.75961 | 14 ft | 45 kts | 73° |
| 2026-04-26 13:39 | 35.75971 | 10.76195 | 15 ft | 16 kts | 73° |
| 2026-04-26 13:39 | 35.76020 | 10.76263 | 15 ft | 8 kts | 355° |
| 2026-04-26 13:39 | 35.76076 | 10.76235 | 15 ft | 9 kts | 339° |
| 2026-04-26 13:40 | 35.76128 | 10.76203 | 17 ft | 7 kts | 316° |
| 2026-04-26 13:40 | 35.76134 | 10.76181 | 15 ft | 2 kts | 284° |
| 2026-04-26 13:40 | 35.76139 | 10.76156 | 15 ft | 5 kts | 275° |
| 2026-04-26 13:40 | 35.76118 | 10.76088 | 15 ft | 10 kts | 249° |
| 2026-04-26 13:41 | 35.76120 | 10.76048 | 15 ft | 5 kts | 320° |
| 2026-04-26 13:41 | 35.76159 | 10.76037 | 15 ft | 5 kts | 347° |
| 2026-04-26 13:41 | 35.76194 | 10.76024 | 15 ft | 3 kts | 343° |
| 2026-04-26 13:41 | 35.76203 | 10.76020 | 15 ft | 1 kts | 343° |
| 2026-04-26 13:42 | 35.76206 | 10.76020 | 15 ft | 0 kts | 343° |
| 2026-04-26 13:42 | 35.76207 | 10.76019 | 15 ft | 0 kts | 343° |